Flight Track Log - Related Links

Times and Time Zones

All times are in EDT time to prevent confusion due to time zone crossing. See the SKW6492 flight status page for this flight to view local times or setup timezone preferences in your user account.

Time Position Orientation Groundspeed Altitude Reporting Facility
EDT Latitude Longitude Course Direction KTS MPH feet Rate Location/Type
Tue 09:44:07 PM 39.9333 -104.6833 346° North 207 238 7,100  Level Denver TRACON
Tue 09:45:01 PM 39.9833 -104.6667 14° North 242 278 8,700 1,900 Climbing Denver TRACON
Tue 09:46:00 PM 40.1486 -104.7662 344° North  Level FlightAware Approximate
Tue 09:46:07 PM 40.0667 -104.6667 360° North 272 313 10,900  Level Denver TRACON
Tue 09:47:00 PM 40.2489 -104.7963 347° North  Level FlightAware Approximate
Tue 09:47:14 PM 40.1594 -104.6861 351° North 285 328 12,900  Level Denver Center
Tue 09:48:00 PM 40.3491 -104.8275 346° North  Level FlightAware Approximate
Tue 09:48:16 PM 40.2442 -104.7069 349° North 308 354 14,600  Level Denver Center
Tue 09:49:00 PM 40.4489 -104.8607 346° North  Level FlightAware Approximate
Tue 09:49:18 PM 40.3356 -104.7314 348° North 310 357 16,400  Level Denver Center
Tue 09:50:20 PM 40.4236 -104.7544 349° North 322 371 17,800 1,366 Climbing Denver Center
Tue 09:51:21 PM 40.5122 -104.7783 348° North 325 374 19,200 1,463 Climbing Denver Center
Tue 09:52:23 PM 40.6094 -104.8039 349° North 334 384 20,800 1,161 Climbing Denver Center
Tue 09:53:25 PM 40.6992 -104.8306 347° North 332 382 21,600 581 Climbing Denver Center
Tue 09:54:27 PM 40.7783 -104.8789 335° Northwest 336 387 22,000 488 Climbing Denver Center
Tue 09:55:28 PM 40.8764 -104.9764 323° Northwest 366 421 22,600 537 Climbing Denver Center
Tue 09:56:30 PM 40.9594 -105.0622 322° Northwest 377 434 23,100 532 Climbing Denver Center
Tue 09:57:32 PM 41.0431 -105.1472 323° Northwest 379 436 23,700 581 Climbing Denver Center
Tue 09:58:34 PM 41.1228 -105.2314 322° Northwest 381 438 24,300 634 Climbing Denver Center
Tue 09:59:35 PM 41.2183 -105.3306 322° Northwest 388 447 25,000 585 Climbing Denver Center
Tue 10:00:37 PM 41.3006 -105.4197 321° Northwest 394 453 25,500 484 Climbing Denver Center
Tue 10:01:39 PM 41.3978 -105.5192 323° Northwest 394 453 26,000 244 Climbing Denver Center
Tue 10:02:40 PM 41.4825 -105.6097 321° Northwest 402 463 26,000  Level Denver Center
Tue 10:03:42 PM 41.5675 -105.6986 322° Northwest 404 465 26,000  Level Denver Center
Tue 10:04:44 PM 41.6644 -105.8006 322° Northwest 398 458 26,000  Level Denver Center
Tue 10:05:46 PM 41.7489 -105.8897 322° Northwest 403 464 26,000  Level Denver Center
Tue 10:06:47 PM 41.8456 -105.9933 321° Northwest 397 457 26,000  Level Denver Center
Tue 10:07:49 PM 41.9281 -106.0806 322° Northwest 394 453 26,000  Level Denver Center
Tue 10:08:51 PM 42.0236 -106.1836 321° Northwest 394 453 26,000  Level Denver Center
Tue 10:09:53 PM 42.1031 -106.2703 321° Northwest 387 445 26,000  Level Denver Center
Tue 10:10:54 PM 42.1811 -106.3558 321° Northwest 379 436 26,000  Level Denver Center
Tue 10:11:56 PM 42.2769 -106.4594 321° Northwest 391 450 26,000  Level Denver Center
Tue 10:12:58 PM 42.3567 -106.5458 321° Northwest 387 445 26,000  Level Denver Center
Tue 10:13:59 PM 42.4492 -106.6481 321° Northwest 384 442 26,000  Level Denver Center
Tue 10:15:01 PM 42.5292 -106.7356 321° Northwest 384 442 26,000  Level Denver Center
Tue 10:16:03 PM 42.6083 -106.8231 321° Northwest 384 442 26,000  Level Denver Center
Tue 10:16:38 PM 42.6589 -106.8836 319° Northwest 381 438 26,000  Level Salt Lake Center
Tue 10:17:39 PM 42.7392 -106.9722 321° Northwest 384 442 26,000  Level Salt Lake Center
Tue 10:18:41 PM 42.8328 -107.0686 323° Northwest 380 437 26,000  Level Salt Lake Center
Tue 10:19:42 PM 42.9111 -107.1575 320° Northwest 382 440 26,000  Level Salt Lake Center
Tue 10:20:43 PM 42.9928 -107.2486 321° Northwest 382 440 26,000  Level Salt Lake Center
Tue 10:21:45 PM 43.0744 -107.3414 320° Northwest 382 440 26,000  Level Salt Lake Center
Tue 10:22:46 PM 43.1722 -107.4542 320° Northwest 383 441 26,000  Level Salt Lake Center
Tue 10:23:47 PM 43.2547 -107.5461 321° Northwest 382 440 26,000  Level Salt Lake Center
Tue 10:24:49 PM 43.3358 -107.6394 320° Northwest 381 438 26,000  Level Salt Lake Center
Tue 10:25:50 PM 43.4167 -107.7328 320° Northwest 380 437 26,000  Level Salt Lake Center
Tue 10:26:51 PM 43.4983 -107.8231 321° Northwest 377 434 26,000 -341 Level Salt Lake Center
Tue 10:27:53 PM 43.5797 -107.9192 319° Northwest 383 441 25,300 -1,366 Descending Salt Lake Center
Tue 10:28:54 PM 43.6656 -108.0186 320° Northwest 399 459 23,200 -2,016 Descending Salt Lake Center
Tue 10:29:55 PM 43.7483 -108.1142 320° Northwest 390 449 21,200 -1,951 Descending Salt Lake Center
Tue 10:30:57 PM 43.8275 -108.2050 320° Northwest 374 430 19,200 -1,902 Descending Salt Lake Center
Tue 10:31:58 PM 43.9044 -108.2961 320° Northwest 367 422 17,300 -1,951 Descending Salt Lake Center
Tue 10:33:00 PM 43.9944 -108.4022 320° Northwest 361 415 15,200 -1,756 Descending Salt Lake Center
Tue 10:34:01 PM 44.0669 -108.4869 320° Northwest 353 406 13,700 -1,463 Descending Salt Lake Center
Tue 10:35:03 PM 44.1386 -108.5722 320° Northwest 346 398 12,200 -1,463 Descending Salt Lake Center
Tue 10:36:04 PM 44.2097 -108.6558 320° Northwest 341 392 10,700 -1,073 Descending Salt Lake Center
Tue 10:37:06 PM 44.2792 -108.7375 320° Northwest 335 386 10,000 -390 Descending Salt Lake Center
Tue 10:38:07 PM 44.3417 -108.8039 323° Northwest 316 364 9,900 -537 Descending Salt Lake Center
Tue 10:39:09 PM 44.4078 -108.8344 342° North 274 315 8,900 -1,024 Descending Salt Lake Center
Tue 10:40:10 PM 44.4692 -108.8653 340° North 253 291 7,800 -829 Descending Salt Lake Center
Tue 10:41:12 PM 44.5225 -108.9006 335° Northwest 235 270 7,200 -732 Descending Salt Lake Center
Tue 10:42:13 PM 44.5594 -108.9572 312° West 200 230 6,300 -885 Descending Salt Lake Center
Tue 10:44:00 PM 44.5202 -109.0238 230° Southwest  Level Estimated
Tue 10:51:00 PM 44.5202 -109.0238 35° Northeast  Level Estimated

Login

Don't have an account? Register now (free) for customized features, flight alerts, and more!